ESOW/VST METAR and TAF weather

Enter ICAO airport designator
Station Type Date Time Source
ESOW METAR 2018/04/21 11:20 UTC NOAA

ESOW 211120Z AUTO 30014KT 260V330 9999 NCD 16/M03 Q1009


Station Type Date Time Source
ESOW Decoded METAR 2018/04/21 11:20 UTC NOAA

Vasteras / Hasslo, Sweden (ESOW) 59-35N 016-38E 31M
Apr 21, 2018 - 07:20 AM EDT / 2018.04.21 1120 UTC
Wind: from the WNW (300 degrees) at 16 MPH (14 KT) (direction variable):0
Visibility: greater than 7 mile(s):0
Temperature: 60 F (16 C)
Dew Point: 26 F (-3 C)
Relative Humidity: 26%
Pressure (altimeter): 29.80 in. Hg (1009 hPa)
ob: ESOW 211120Z AUTO 30014KT 260V330 9999 NCD 16/M03 Q1009
cycle: 11

Station Type Date Time Source
ESOW TAF 2016/10/26 04:36 UTC NOAA

TAF TAF ESOW 260330Z 2604/2624 VRB02KT CAVOK PROB40 2604/2607 1000 BCFG


Example: see airport list